sensor_id;sensor_type;location;lat;lon;timestamp;P1;durP1;ratioP1;P2;durP2;ratioP2
5553;SDS011;2800;49.528;8.666;2022-09-13T00:01:42;7.73;;;3.50;;
5553;SDS011;2800;49.528;8.666;2022-09-13T00:04:08;7.17;;;3.50;;
5553;SDS011;2800;49.528;8.666;2022-09-13T00:06:34;6.47;;;3.70;;
5553;SDS011;2800;49.528;8.666;2022-09-13T00:08:59;5.47;;;3.27;;
5553;SDS011;2800;49.528;8.666;2022-09-13T00:11:26;5.27;;;2.97;;
5553;SDS011;2800;49.528;8.666;2022-09-13T00:13:53;6.57;;;2.90;;
5553;SDS011;2800;49.528;8.666;2022-09-13T00:16:20;5.87;;;3.40;;
5553;SDS011;2800;49.528;8.666;2022-09-13T00:18:48;6.87;;;3.57;;
5553;SDS011;2800;49.528;8.666;2022-09-13T00:21:15;6.30;;;3.50;;
5553;SDS011;2800;49.528;8.666;2022-09-13T00:23:43;5.90;;;3.33;;
5553;SDS011;2800;49.528;8.666;2022-09-13T00:26:11;7.17;;;3.23;;
5553;SDS011;2800;49.528;8.666;2022-09-13T00:28:38;7.23;;;3.50;;
5553;SDS011;2800;49.528;8.666;2022-09-13T00:31:05;9.47;;;3.63;;
5553;SDS011;2800;49.528;8.666;2022-09-13T00:33:32;6.73;;;3.60;;
5553;SDS011;2800;49.528;8.666;2022-09-13T00:35:57;7.13;;;3.83;;
5553;SDS011;2800;49.528;8.666;2022-09-13T00:38:26;6.30;;;3.40;;
5553;SDS011;2800;49.528;8.666;2022-09-13T00:40:52;8.80;;;3.40;;
5553;SDS011;2800;49.528;8.666;2022-09-13T00:43:18;9.20;;;3.73;;
5553;SDS011;2800;49.528;8.666;2022-09-13T00:45:45;5.43;;;3.40;;
5553;SDS011;2800;49.528;8.666;2022-09-13T00:48:15;8.30;;;3.63;;
5553;SDS011;2800;49.528;8.666;2022-09-13T00:50:47;5.90;;;3.30;;
5553;SDS011;2800;49.528;8.666;2022-09-13T00:53:19;8.63;;;3.33;;
5553;SDS011;2800;49.528;8.666;2022-09-13T00:56:34;7.93;;;3.60;;
5553;SDS011;2800;49.528;8.666;2022-09-13T00:59:12;5.60;;;3.30;;
5553;SDS011;2800;49.528;8.666;2022-09-13T01:01:51;6.50;;;3.40;;
5553;SDS011;2800;49.528;8.666;2022-09-13T01:04:19;6.37;;;3.50;;
5553;SDS011;2800;49.528;8.666;2022-09-13T01:06:47;5.80;;;3.13;;
5553;SDS011;2800;49.528;8.666;2022-09-13T01:09:15;7.30;;;3.27;;
5553;SDS011;2800;49.528;8.666;2022-09-13T01:11:58;6.63;;;3.27;;
5553;SDS011;2800;49.528;8.666;2022-09-13T01:14:28;7.37;;;3.50;;
5553;SDS011;2800;49.528;8.666;2022-09-13T01:16:55;6.03;;;3.10;;
5553;SDS011;2800;49.528;8.666;2022-09-13T01:19:21;7.10;;;3.43;;
5553;SDS011;2800;49.528;8.666;2022-09-13T01:30:18;6.03;;;3.43;;
5553;SDS011;2800;49.528;8.666;2022-09-13T01:38:14;7.00;;;3.80;;
5553;SDS011;2800;49.528;8.666;2022-09-13T01:41:05;5.80;;;3.33;;
5553;SDS011;2800;49.528;8.666;2022-09-13T01:43:41;8.37;;;3.30;;
5553;SDS011;2800;49.528;8.666;2022-09-13T01:46:22;7.87;;;3.40;;
5553;SDS011;2800;49.528;8.666;2022-09-13T01:49:01;7.03;;;3.80;;
5553;SDS011;2800;49.528;8.666;2022-09-13T01:51:54;5.87;;;3.60;;
5553;SDS011;2800;49.528;8.666;2022-09-13T01:56:59;8.87;;;3.47;;
5553;SDS011;2800;49.528;8.666;2022-09-13T01:59:36;9.53;;;3.93;;
5553;SDS011;2800;49.528;8.666;2022-09-13T02:02:15;9.20;;;3.40;;
5553;SDS011;2800;49.528;8.666;2022-09-13T02:04:57;8.60;;;6.23;;
5553;SDS011;2800;49.528;8.666;2022-09-13T02:07:33;8.83;;;3.67;;
5553;SDS011;2800;49.528;8.666;2022-09-13T02:10:05;8.27;;;4.03;;
5553;SDS011;2800;49.528;8.666;2022-09-13T02:12:35;7.03;;;3.80;;
5553;SDS011;2800;49.528;8.666;2022-09-13T02:15:09;6.70;;;3.50;;
5553;SDS011;2800;49.528;8.666;2022-09-13T02:17:48;6.03;;;3.43;;
5553;SDS011;2800;49.528;8.666;2022-09-13T02:20:20;6.67;;;3.57;;
5553;SDS011;2800;49.528;8.666;2022-09-13T02:22:52;20.90;;;4.27;;
5553;SDS011;2800;49.528;8.666;2022-09-13T02:25:21;7.73;;;3.20;;
5553;SDS011;2800;49.528;8.666;2022-09-13T02:27:49;8.70;;;4.40;;
5553;SDS011;2800;49.528;8.666;2022-09-13T02:30:18;10.07;;;4.03;;
5553;SDS011;2800;49.528;8.666;2022-09-13T02:32:48;8.80;;;4.37;;
5553;SDS011;2800;49.528;8.666;2022-09-13T02:38:08;7.10;;;4.83;;
5553;SDS011;2800;49.528;8.666;2022-09-13T02:40:48;8.80;;;4.30;;
5553;SDS011;2800;49.528;8.666;2022-09-13T02:43:40;9.03;;;4.77;;
5553;SDS011;2800;49.528;8.666;2022-09-13T02:49:32;8.77;;;3.90;;
5553;SDS011;2800;49.528;8.666;2022-09-13T02:57:56;8.50;;;3.70;;
5553;SDS011;2800;49.528;8.666;2022-09-13T03:00:23;7.83;;;3.80;;
5553;SDS011;2800;49.528;8.666;2022-09-13T03:02:49;6.53;;;4.33;;
5553;SDS011;2800;49.528;8.666;2022-09-13T03:05:17;7.30;;;4.43;;
5553;SDS011;2800;49.528;8.666;2022-09-13T03:07:43;9.97;;;4.70;;
5553;SDS011;2800;49.528;8.666;2022-09-13T03:10:10;9.90;;;4.23;;
5553;SDS011;2800;49.528;8.666;2022-09-13T03:15:44;8.43;;;4.50;;
5553;SDS011;2800;49.528;8.666;2022-09-13T03:19:09;6.80;;;4.57;;
5553;SDS011;2800;49.528;8.666;2022-09-13T03:23:58;9.40;;;4.43;;
5553;SDS011;2800;49.528;8.666;2022-09-13T03:26:44;10.03;;;5.73;;
5553;SDS011;2800;49.528;8.666;2022-09-13T03:35:09;9.93;;;5.13;;
5553;SDS011;2800;49.528;8.666;2022-09-13T03:38:05;8.20;;;4.90;;
5553;SDS011;2800;49.528;8.666;2022-09-13T03:40:48;11.63;;;5.80;;
5553;SDS011;2800;49.528;8.666;2022-09-13T03:43:15;15.20;;;5.73;;
5553;SDS011;2800;49.528;8.666;2022-09-13T03:45:53;9.93;;;6.67;;
5553;SDS011;2800;49.528;8.666;2022-09-13T03:48:23;11.20;;;6.63;;
5553;SDS011;2800;49.528;8.666;2022-09-13T03:50:49;16.57;;;6.80;;
5553;SDS011;2800;49.528;8.666;2022-09-13T03:53:18;13.30;;;6.57;;
5553;SDS011;2800;49.528;8.666;2022-09-13T03:55:47;12.80;;;7.10;;
5553;SDS011;2800;49.528;8.666;2022-09-13T03:58:13;10.30;;;6.40;;
5553;SDS011;2800;49.528;8.666;2022-09-13T04:00:41;11.40;;;6.60;;
5553;SDS011;2800;49.528;8.666;2022-09-13T04:03:08;15.90;;;8.00;;
5553;SDS011;2800;49.528;8.666;2022-09-13T04:05:34;12.33;;;7.00;;
5553;SDS011;2800;49.528;8.666;2022-09-13T04:08:00;11.90;;;7.37;;
5553;SDS011;2800;49.528;8.666;2022-09-13T04:10:29;12.83;;;7.23;;
5553;SDS011;2800;49.528;8.666;2022-09-13T04:12:56;14.63;;;7.87;;
5553;SDS011;2800;49.528;8.666;2022-09-13T04:15:22;19.20;;;8.47;;
5553;SDS011;2800;49.528;8.666;2022-09-13T04:17:48;15.80;;;8.57;;
5553;SDS011;2800;49.528;8.666;2022-09-13T04:20:14;18.80;;;8.00;;
5553;SDS011;2800;49.528;8.666;2022-09-13T04:22:39;12.70;;;8.20;;
5553;SDS011;2800;49.528;8.666;2022-09-13T04:25:06;12.60;;;7.90;;
5553;SDS011;2800;49.528;8.666;2022-09-13T04:27:32;13.27;;;7.43;;
5553;SDS011;2800;49.528;8.666;2022-09-13T04:29:59;12.87;;;7.00;;
5553;SDS011;2800;49.528;8.666;2022-09-13T04:32:25;15.23;;;7.80;;
5553;SDS011;2800;49.528;8.666;2022-09-13T04:34:50;11.70;;;7.30;;
5553;SDS011;2800;49.528;8.666;2022-09-13T04:37:16;11.73;;;7.73;;
5553;SDS011;2800;49.528;8.666;2022-09-13T04:39:41;12.50;;;6.93;;
5553;SDS011;2800;49.528;8.666;2022-09-13T04:42:07;10.87;;;7.00;;
5553;SDS011;2800;49.528;8.666;2022-09-13T04:44:35;12.00;;;7.47;;
5553;SDS011;2800;49.528;8.666;2022-09-13T04:47:00;14.10;;;7.27;;
5553;SDS011;2800;49.528;8.666;2022-09-13T04:49:26;11.00;;;6.93;;
5553;SDS011;2800;49.528;8.666;2022-09-13T04:51:52;14.00;;;7.37;;
5553;SDS011;2800;49.528;8.666;2022-09-13T04:54:18;18.00;;;7.87;;
5553;SDS011;2800;49.528;8.666;2022-09-13T04:56:43;11.43;;;7.17;;
5553;SDS011;2800;49.528;8.666;2022-09-13T04:59:10;11.00;;;6.50;;
5553;SDS011;2800;49.528;8.666;2022-09-13T05:01:36;11.23;;;6.43;;
5553;SDS011;2800;49.528;8.666;2022-09-13T05:04:02;11.00;;;6.80;;
5553;SDS011;2800;49.528;8.666;2022-09-13T05:06:28;11.30;;;7.33;;
5553;SDS011;2800;49.528;8.666;2022-09-13T05:08:54;14.53;;;7.67;;
5553;SDS011;2800;49.528;8.666;2022-09-13T05:11:21;14.27;;;7.40;;
5553;SDS011;2800;49.528;8.666;2022-09-13T05:13:48;11.53;;;6.80;;
5553;SDS011;2800;49.528;8.666;2022-09-13T05:16:19;10.23;;;7.20;;
5553;SDS011;2800;49.528;8.666;2022-09-13T05:18:51;10.00;;;6.90;;
5553;SDS011;2800;49.528;8.666;2022-09-13T05:21:17;12.13;;;6.53;;
5553;SDS011;2800;49.528;8.666;2022-09-13T05:23:44;11.27;;;6.43;;
5553;SDS011;2800;49.528;8.666;2022-09-13T05:26:12;11.17;;;6.70;;
5553;SDS011;2800;49.528;8.666;2022-09-13T05:28:38;9.90;;;6.47;;
5553;SDS011;2800;49.528;8.666;2022-09-13T05:33:30;10.33;;;6.23;;
5553;SDS011;2800;49.528;8.666;2022-09-13T05:35:57;10.90;;;7.00;;
5553;SDS011;2800;49.528;8.666;2022-09-13T05:38:23;11.10;;;6.70;;
5553;SDS011;2800;49.528;8.666;2022-09-13T05:40:55;11.13;;;7.23;;
5553;SDS011;2800;49.528;8.666;2022-09-13T05:43:22;11.17;;;6.73;;
5553;SDS011;2800;49.528;8.666;2022-09-13T05:45:48;12.83;;;6.83;;
5553;SDS011;2800;49.528;8.666;2022-09-13T05:48:14;9.50;;;6.70;;
5553;SDS011;2800;49.528;8.666;2022-09-13T05:50:39;8.67;;;6.37;;
5553;SDS011;2800;49.528;8.666;2022-09-13T05:53:05;12.83;;;6.50;;
5553;SDS011;2800;49.528;8.666;2022-09-13T05:55:31;22.13;;;10.20;;
5553;SDS011;2800;49.528;8.666;2022-09-13T05:57:58;16.33;;;8.20;;
5553;SDS011;2800;49.528;8.666;2022-09-13T06:00:24;15.43;;;7.03;;
5553;SDS011;2800;49.528;8.666;2022-09-13T06:02:50;21.60;;;7.80;;
5553;SDS011;2800;49.528;8.666;2022-09-13T06:05:15;31.67;;;7.00;;
5553;SDS011;2800;49.528;8.666;2022-09-13T06:07:41;18.70;;;7.07;;
5553;SDS011;2800;49.528;8.666;2022-09-13T06:10:07;12.63;;;7.10;;
5553;SDS011;2800;49.528;8.666;2022-09-13T06:12:34;15.67;;;6.70;;
5553;SDS011;2800;49.528;8.666;2022-09-13T06:14:59;14.40;;;6.90;;
5553;SDS011;2800;49.528;8.666;2022-09-13T06:17:25;12.87;;;6.33;;
5553;SDS011;2800;49.528;8.666;2022-09-13T06:19:50;15.70;;;7.03;;
5553;SDS011;2800;49.528;8.666;2022-09-13T06:22:16;22.50;;;8.57;;
5553;SDS011;2800;49.528;8.666;2022-09-13T06:24:42;17.60;;;7.10;;
5553;SDS011;2800;49.528;8.666;2022-09-13T06:27:07;19.53;;;7.60;;
5553;SDS011;2800;49.528;8.666;2022-09-13T06:29:34;16.27;;;6.60;;
5553;SDS011;2800;49.528;8.666;2022-09-13T06:32:00;13.57;;;7.93;;
5553;SDS011;2800;49.528;8.666;2022-09-13T06:34:26;14.10;;;7.93;;
5553;SDS011;2800;49.528;8.666;2022-09-13T06:36:52;20.40;;;7.97;;
5553;SDS011;2800;49.528;8.666;2022-09-13T06:39:17;14.40;;;7.93;;
5553;SDS011;2800;49.528;8.666;2022-09-13T06:41:43;15.73;;;8.80;;
5553;SDS011;2800;49.528;8.666;2022-09-13T06:44:08;14.30;;;8.10;;
5553;SDS011;2800;49.528;8.666;2022-09-13T06:46:34;13.80;;;8.13;;
5553;SDS011;2800;49.528;8.666;2022-09-13T06:49:01;13.87;;;8.30;;
5553;SDS011;2800;49.528;8.666;2022-09-13T06:51:32;14.70;;;8.57;;
5553;SDS011;2800;49.528;8.666;2022-09-13T06:53:58;14.93;;;8.20;;
5553;SDS011;2800;49.528;8.666;2022-09-13T06:56:25;15.97;;;8.30;;
5553;SDS011;2800;49.528;8.666;2022-09-13T06:59:03;11.73;;;8.00;;
5553;SDS011;2800;49.528;8.666;2022-09-13T07:01:31;16.87;;;8.50;;
5553;SDS011;2800;49.528;8.666;2022-09-13T07:04:00;13.73;;;8.80;;
5553;SDS011;2800;49.528;8.666;2022-09-13T07:06:28;13.43;;;8.33;;
5553;SDS011;2800;49.528;8.666;2022-09-13T07:08:56;14.80;;;8.80;;
5553;SDS011;2800;49.528;8.666;2022-09-13T07:11:25;16.10;;;8.93;;
5553;SDS011;2800;49.528;8.666;2022-09-13T07:13:54;16.43;;;8.40;;
5553;SDS011;2800;49.528;8.666;2022-09-13T07:16:22;16.50;;;8.80;;
5553;SDS011;2800;49.528;8.666;2022-09-13T07:18:58;12.33;;;8.93;;
5553;SDS011;2800;49.528;8.666;2022-09-13T07:21:26;17.20;;;9.10;;
5553;SDS011;2800;49.528;8.666;2022-09-13T07:23:53;12.97;;;8.73;;
5553;SDS011;2800;49.528;8.666;2022-09-13T07:26:19;12.90;;;8.50;;
5553;SDS011;2800;49.528;8.666;2022-09-13T07:28:46;15.23;;;8.60;;
5553;SDS011;2800;49.528;8.666;2022-09-13T07:31:15;17.70;;;9.43;;
5553;SDS011;2800;49.528;8.666;2022-09-13T07:33:46;19.63;;;9.10;;
5553;SDS011;2800;49.528;8.666;2022-09-13T07:36:18;14.47;;;8.37;;
5553;SDS011;2800;49.528;8.666;2022-09-13T07:38:44;14.53;;;8.57;;
5553;SDS011;2800;49.528;8.666;2022-09-13T07:41:16;11.63;;;8.73;;
5553;SDS011;2800;49.528;8.666;2022-09-13T07:43:44;14.73;;;8.90;;
5553;SDS011;2800;49.528;8.666;2022-09-13T07:46:10;11.67;;;8.40;;
5553;SDS011;2800;49.528;8.666;2022-09-13T07:48:57;12.40;;;8.47;;
5553;SDS011;2800;49.528;8.666;2022-09-13T07:51:25;15.40;;;8.07;;
5553;SDS011;2800;49.528;8.666;2022-09-13T07:53:56;10.60;;;7.70;;
5553;SDS011;2800;49.528;8.666;2022-09-13T07:56:24;14.60;;;7.50;;
5553;SDS011;2800;49.528;8.666;2022-09-13T07:58:52;14.00;;;6.70;;
5553;SDS011;2800;49.528;8.666;2022-09-13T08:01:25;11.60;;;6.70;;
5553;SDS011;2800;49.528;8.666;2022-09-13T08:04:15;14.17;;;7.00;;
5553;SDS011;2800;49.528;8.666;2022-09-13T08:06:41;13.13;;;7.17;;
5553;SDS011;2800;49.528;8.666;2022-09-13T08:09:10;10.80;;;6.13;;
5553;SDS011;2800;49.528;8.666;2022-09-13T08:14:37;10.97;;;7.13;;
5553;SDS011;2800;49.528;8.666;2022-09-13T08:17:02;16.07;;;6.90;;
5553;SDS011;2800;49.528;8.666;2022-09-13T08:19:28;12.53;;;7.80;;
5553;SDS011;2800;49.528;8.666;2022-09-13T08:21:53;11.47;;;7.80;;
5553;SDS011;2800;49.528;8.666;2022-09-13T08:24:19;13.87;;;7.90;;
5553;SDS011;2800;49.528;8.666;2022-09-13T08:26:45;10.17;;;6.97;;
5553;SDS011;2800;49.528;8.666;2022-09-13T08:29:12;12.57;;;8.17;;
5553;SDS011;2800;49.528;8.666;2022-09-13T08:31:39;11.07;;;8.00;;
5553;SDS011;2800;49.528;8.666;2022-09-13T08:34:05;12.10;;;7.00;;
5553;SDS011;2800;49.528;8.666;2022-09-13T08:36:35;11.80;;;7.40;;
5553;SDS011;2800;49.528;8.666;2022-09-13T08:39:00;21.43;;;8.40;;
5553;SDS011;2800;49.528;8.666;2022-09-13T08:46:50;9.60;;;6.77;;
5553;SDS011;2800;49.528;8.666;2022-09-13T08:49:41;17.10;;;6.63;;
5553;SDS011;2800;49.528;8.666;2022-09-13T08:52:15;13.23;;;7.87;;
5553;SDS011;2800;49.528;8.666;2022-09-13T08:54:56;12.20;;;6.80;;
5553;SDS011;2800;49.528;8.666;2022-09-13T08:57:38;8.50;;;6.07;;
5553;SDS011;2800;49.528;8.666;2022-09-13T09:00:22;12.63;;;6.57;;
5553;SDS011;2800;49.528;8.666;2022-09-13T09:02:59;11.83;;;6.30;;
5553;SDS011;2800;49.528;8.666;2022-09-13T09:05:48;10.73;;;6.00;;
5553;SDS011;2800;49.528;8.666;2022-09-13T09:10:49;8.87;;;5.80;;
5553;SDS011;2800;49.528;8.666;2022-09-13T09:18:54;12.70;;;6.27;;
5553;SDS011;2800;49.528;8.666;2022-09-13T09:21:24;11.00;;;6.37;;
5553;SDS011;2800;49.528;8.666;2022-09-13T09:23:51;12.70;;;6.47;;
5553;SDS011;2800;49.528;8.666;2022-09-13T09:34:39;9.13;;;6.40;;
5553;SDS011;2800;49.528;8.666;2022-09-13T09:37:15;9.70;;;6.13;;
5553;SDS011;2800;49.528;8.666;2022-09-13T09:39:50;13.10;;;8.10;;
5553;SDS011;2800;49.528;8.666;2022-09-13T09:42:18;9.80;;;5.70;;
5553;SDS011;2800;49.528;8.666;2022-09-13T09:44:46;10.53;;;6.17;;
5553;SDS011;2800;49.528;8.666;2022-09-13T09:47:17;13.10;;;8.13;;
5553;SDS011;2800;49.528;8.666;2022-09-13T09:49:45;14.93;;;5.53;;
5553;SDS011;2800;49.528;8.666;2022-09-13T09:52:39;11.50;;;5.40;;
5553;SDS011;2800;49.528;8.666;2022-09-13T10:00:18;10.63;;;6.30;;
5553;SDS011;2800;49.528;8.666;2022-09-13T10:02:45;11.57;;;5.67;;
5553;SDS011;2800;49.528;8.666;2022-09-13T10:05:12;10.20;;;6.00;;
5553;SDS011;2800;49.528;8.666;2022-09-13T10:07:43;14.87;;;6.93;;
5553;SDS011;2800;49.528;8.666;2022-09-13T10:11:03;12.50;;;7.30;;
5553;SDS011;2800;49.528;8.666;2022-09-13T10:13:07;13.10;;;7.97;;
5553;SDS011;2800;49.528;8.666;2022-09-13T10:16:45;13.97;;;7.70;;
5553;SDS011;2800;49.528;8.666;2022-09-13T10:21:59;11.50;;;7.70;;
5553;SDS011;2800;49.528;8.666;2022-09-13T10:24:26;19.63;;;8.27;;
5553;SDS011;2800;49.528;8.666;2022-09-13T10:26:53;11.53;;;7.67;;
5553;SDS011;2800;49.528;8.666;2022-09-13T10:29:19;14.30;;;7.83;;
5553;SDS011;2800;49.528;8.666;2022-09-13T10:31:47;14.07;;;8.67;;
5553;SDS011;2800;49.528;8.666;2022-09-13T10:34:28;10.43;;;6.77;;
5553;SDS011;2800;49.528;8.666;2022-09-13T10:37:02;8.80;;;7.07;;
5553;SDS011;2800;49.528;8.666;2022-09-13T10:39:50;21.70;;;7.90;;
5553;SDS011;2800;49.528;8.666;2022-09-13T10:42:33;13.93;;;7.20;;
5553;SDS011;2800;49.528;8.666;2022-09-13T10:45:03;11.77;;;7.07;;
5553;SDS011;2800;49.528;8.666;2022-09-13T10:47:38;9.03;;;6.00;;
5553;SDS011;2800;49.528;8.666;2022-09-13T10:52:50;12.97;;;5.87;;
5553;SDS011;2800;49.528;8.666;2022-09-13T10:57:42;11.33;;;6.17;;
5553;SDS011;2800;49.528;8.666;2022-09-13T11:00:13;8.70;;;5.67;;
5553;SDS011;2800;49.528;8.666;2022-09-13T11:02:55;10.47;;;5.33;;
5553;SDS011;2800;49.528;8.666;2022-09-13T11:13:51;9.20;;;4.70;;
5553;SDS011;2800;49.528;8.666;2022-09-13T11:16:47;8.87;;;4.87;;
5553;SDS011;2800;49.528;8.666;2022-09-13T11:19:35;10.70;;;5.40;;
5553;SDS011;2800;49.528;8.666;2022-09-13T11:28:24;7.10;;;4.60;;
5553;SDS011;2800;49.528;8.666;2022-09-13T11:33:41;11.57;;;4.27;;
5553;SDS011;2800;49.528;8.666;2022-09-13T11:36:28;11.53;;;4.27;;
5553;SDS011;2800;49.528;8.666;2022-09-13T11:39:12;6.83;;;4.00;;
5553;SDS011;2800;49.528;8.666;2022-09-13T11:45:08;10.23;;;4.57;;
5553;SDS011;2800;49.528;8.666;2022-09-13T11:50:24;7.93;;;4.60;;
5553;SDS011;2800;49.528;8.666;2022-09-13T11:53:21;12.33;;;4.47;;
5553;SDS011;2800;49.528;8.666;2022-09-13T11:56:09;10.13;;;4.63;;
5553;SDS011;2800;49.528;8.666;2022-09-13T11:58:50;11.40;;;5.63;;
5553;SDS011;2800;49.528;8.666;2022-09-13T12:01:25;10.10;;;5.10;;
5553;SDS011;2800;49.528;8.666;2022-09-13T12:04:06;10.40;;;4.93;;
5553;SDS011;2800;49.528;8.666;2022-09-13T12:06:39;14.47;;;4.90;;
5553;SDS011;2800;49.528;8.666;2022-09-13T12:09:12;9.70;;;4.57;;
5553;SDS011;2800;49.528;8.666;2022-09-13T12:12:14;9.53;;;4.67;;
5553;SDS011;2800;49.528;8.666;2022-09-13T12:14:44;8.20;;;4.60;;
5553;SDS011;2800;49.528;8.666;2022-09-13T12:17:28;7.13;;;4.40;;
5553;SDS011;2800;49.528;8.666;2022-09-13T12:19:56;9.50;;;4.70;;
5553;SDS011;2800;49.528;8.666;2022-09-13T12:22:26;10.43;;;4.30;;
5553;SDS011;2800;49.528;8.666;2022-09-13T12:24:55;7.90;;;4.50;;
5553;SDS011;2800;49.528;8.666;2022-09-13T12:30:17;9.83;;;4.27;;
5553;SDS011;2800;49.528;8.666;2022-09-13T12:32:45;8.90;;;5.03;;
5553;SDS011;2800;49.528;8.666;2022-09-13T12:35:23;7.70;;;4.80;;
5553;SDS011;2800;49.528;8.666;2022-09-13T12:57:13;9.30;;;5.17;;
5553;SDS011;2800;49.528;8.666;2022-09-13T13:00:02;10.23;;;4.87;;
5553;SDS011;2800;49.528;8.666;2022-09-13T13:07:53;11.03;;;5.47;;
5553;SDS011;2800;49.528;8.666;2022-09-13T13:10:23;14.83;;;5.10;;
5553;SDS011;2800;49.528;8.666;2022-09-13T13:12:52;8.73;;;5.37;;
5553;SDS011;2800;49.528;8.666;2022-09-13T13:17:49;11.53;;;6.33;;
5553;SDS011;2800;49.528;8.666;2022-09-13T13:26:01;13.53;;;4.67;;
5553;SDS011;2800;49.528;8.666;2022-09-13T13:33:48;12.10;;;4.70;;
5553;SDS011;2800;49.528;8.666;2022-09-13T13:36:20;16.30;;;4.90;;
5553;SDS011;2800;49.528;8.666;2022-09-13T13:38:59;8.23;;;4.53;;
5553;SDS011;2800;49.528;8.666;2022-09-13T13:44:50;8.40;;;4.37;;
5553;SDS011;2800;49.528;8.666;2022-09-13T13:46:54;8.10;;;4.83;;
5553;SDS011;2800;49.528;8.666;2022-09-13T13:57:15;5.37;;;3.77;;
5553;SDS011;2800;49.528;8.666;2022-09-13T13:59:46;8.20;;;4.30;;
5553;SDS011;2800;49.528;8.666;2022-09-13T14:02:20;12.53;;;4.10;;
5553;SDS011;2800;49.528;8.666;2022-09-13T14:07:28;11.40;;;4.00;;
5553;SDS011;2800;49.528;8.666;2022-09-13T14:10:17;10.27;;;3.70;;
5553;SDS011;2800;49.528;8.666;2022-09-13T14:12:57;10.70;;;4.20;;
5553;SDS011;2800;49.528;8.666;2022-09-13T14:15:45;7.63;;;3.97;;
5553;SDS011;2800;49.528;8.666;2022-09-13T14:18:31;7.97;;;4.03;;
5553;SDS011;2800;49.528;8.666;2022-09-13T14:21:28;9.70;;;4.10;;
5553;SDS011;2800;49.528;8.666;2022-09-13T14:24:06;8.40;;;4.30;;
5553;SDS011;2800;49.528;8.666;2022-09-13T14:26:46;8.10;;;4.80;;
5553;SDS011;2800;49.528;8.666;2022-09-13T14:29:15;11.30;;;4.60;;
5553;SDS011;2800;49.528;8.666;2022-09-13T14:31:49;11.67;;;4.37;;
5553;SDS011;2800;49.528;8.666;2022-09-13T14:34:21;8.67;;;4.40;;
5553;SDS011;2800;49.528;8.666;2022-09-13T14:37:00;8.80;;;4.70;;
5553;SDS011;2800;49.528;8.666;2022-09-13T14:39:28;8.97;;;4.33;;
5553;SDS011;2800;49.528;8.666;2022-09-13T14:42:13;7.53;;;4.53;;
5553;SDS011;2800;49.528;8.666;2022-09-13T14:44:46;9.00;;;4.40;;
5553;SDS011;2800;49.528;8.666;2022-09-13T14:47:17;13.33;;;4.63;;
5553;SDS011;2800;49.528;8.666;2022-09-13T14:50:19;8.30;;;4.40;;
5553;SDS011;2800;49.528;8.666;2022-09-13T14:52:48;9.87;;;4.80;;
5553;SDS011;2800;49.528;8.666;2022-09-13T14:55:15;11.73;;;5.87;;
5553;SDS011;2800;49.528;8.666;2022-09-13T14:57:55;11.13;;;6.27;;
5553;SDS011;2800;49.528;8.666;2022-09-13T15:00:28;7.70;;;6.00;;
5553;SDS011;2800;49.528;8.666;2022-09-13T15:03:00;13.33;;;5.97;;
5553;SDS011;2800;49.528;8.666;2022-09-13T15:05:32;12.70;;;5.20;;
5553;SDS011;2800;49.528;8.666;2022-09-13T15:07:59;8.17;;;5.13;;
5553;SDS011;2800;49.528;8.666;2022-09-13T15:10:45;10.70;;;4.00;;
5553;SDS011;2800;49.528;8.666;2022-09-13T15:13:10;8.30;;;3.60;;
5553;SDS011;2800;49.528;8.666;2022-09-13T15:15:42;5.47;;;3.30;;
5553;SDS011;2800;49.528;8.666;2022-09-13T15:20:53;7.73;;;3.10;;
5553;SDS011;2800;49.528;8.666;2022-09-13T15:23:25;6.93;;;2.90;;
5553;SDS011;2800;49.528;8.666;2022-09-13T15:26:11;8.60;;;3.37;;
5553;SDS011;2800;49.528;8.666;2022-09-13T15:31:27;6.93;;;3.07;;
5553;SDS011;2800;49.528;8.666;2022-09-13T15:36:44;6.77;;;2.73;;
5553;SDS011;2800;49.528;8.666;2022-09-13T15:39:15;6.20;;;2.77;;
5553;SDS011;2800;49.528;8.666;2022-09-13T15:41:52;6.03;;;3.10;;
5553;SDS011;2800;49.528;8.666;2022-09-13T15:44:25;7.30;;;3.00;;
5553;SDS011;2800;49.528;8.666;2022-09-13T15:46:54;7.87;;;3.00;;
5553;SDS011;2800;49.528;8.666;2022-09-13T15:49:24;6.40;;;2.67;;
5553;SDS011;2800;49.528;8.666;2022-09-13T15:51:52;6.80;;;3.10;;
5553;SDS011;2800;49.528;8.666;2022-09-13T15:54:26;5.23;;;2.50;;
5553;SDS011;2800;49.528;8.666;2022-09-13T15:57:07;6.20;;;2.80;;
5553;SDS011;2800;49.528;8.666;2022-09-13T15:59:37;6.37;;;2.57;;
5553;SDS011;2800;49.528;8.666;2022-09-13T16:02:12;6.47;;;2.53;;
5553;SDS011;2800;49.528;8.666;2022-09-13T16:04:41;8.67;;;2.50;;
5553;SDS011;2800;49.528;8.666;2022-09-13T16:07:07;6.30;;;2.40;;
5553;SDS011;2800;49.528;8.666;2022-09-13T16:09:33;7.83;;;2.60;;
5553;SDS011;2800;49.528;8.666;2022-09-13T16:11:59;4.57;;;2.30;;
5553;SDS011;2800;49.528;8.666;2022-09-13T16:14:24;4.73;;;2.10;;
5553;SDS011;2800;49.528;8.666;2022-09-13T16:16:50;5.60;;;2.50;;
5553;SDS011;2800;49.528;8.666;2022-09-13T16:19:19;6.10;;;2.53;;
5553;SDS011;2800;49.528;8.666;2022-09-13T16:21:46;5.00;;;2.43;;
5553;SDS011;2800;49.528;8.666;2022-09-13T16:24:12;5.27;;;2.10;;
5553;SDS011;2800;49.528;8.666;2022-09-13T16:26:38;4.93;;;2.30;;
5553;SDS011;2800;49.528;8.666;2022-09-13T16:29:04;5.80;;;2.43;;
5553;SDS011;2800;49.528;8.666;2022-09-13T16:31:29;6.43;;;2.57;;
5553;SDS011;2800;49.528;8.666;2022-09-13T16:33:55;5.40;;;2.40;;
5553;SDS011;2800;49.528;8.666;2022-09-13T16:36:20;6.53;;;2.50;;
5553;SDS011;2800;49.528;8.666;2022-09-13T16:38:46;5.23;;;2.50;;
5553;SDS011;2800;49.528;8.666;2022-09-13T16:41:12;5.80;;;2.70;;
5553;SDS011;2800;49.528;8.666;2022-09-13T16:43:37;6.97;;;2.53;;
5553;SDS011;2800;49.528;8.666;2022-09-13T16:46:07;8.30;;;2.60;;
5553;SDS011;2800;49.528;8.666;2022-09-13T16:48:33;8.00;;;2.40;;
5553;SDS011;2800;49.528;8.666;2022-09-13T16:51:00;6.33;;;2.60;;
5553;SDS011;2800;49.528;8.666;2022-09-13T16:53:29;7.03;;;2.43;;
5553;SDS011;2800;49.528;8.666;2022-09-13T16:56:03;9.57;;;2.90;;
5553;SDS011;2800;49.528;8.666;2022-09-13T16:58:30;4.80;;;2.63;;
5553;SDS011;2800;49.528;8.666;2022-09-13T17:00:55;7.43;;;2.77;;
5553;SDS011;2800;49.528;8.666;2022-09-13T17:03:21;4.87;;;2.47;;
5553;SDS011;2800;49.528;8.666;2022-09-13T17:05:55;5.03;;;2.43;;
5553;SDS011;2800;49.528;8.666;2022-09-13T17:08:22;7.23;;;2.90;;
5553;SDS011;2800;49.528;8.666;2022-09-13T17:10:48;7.67;;;2.77;;
5553;SDS011;2800;49.528;8.666;2022-09-13T17:13:13;8.37;;;2.90;;
5553;SDS011;2800;49.528;8.666;2022-09-13T17:15:39;8.23;;;3.00;;
5553;SDS011;2800;49.528;8.666;2022-09-13T17:18:04;7.97;;;2.90;;
5553;SDS011;2800;49.528;8.666;2022-09-13T17:20:30;6.13;;;3.10;;
5553;SDS011;2800;49.528;8.666;2022-09-13T17:22:55;8.03;;;4.17;;
5553;SDS011;2800;49.528;8.666;2022-09-13T17:25:21;9.27;;;3.67;;
5553;SDS011;2800;49.528;8.666;2022-09-13T17:27:46;8.97;;;3.60;;
5553;SDS011;2800;49.528;8.666;2022-09-13T17:30:12;5.20;;;3.20;;
5553;SDS011;2800;49.528;8.666;2022-09-13T17:32:38;8.40;;;3.50;;
5553;SDS011;2800;49.528;8.666;2022-09-13T17:35:03;6.00;;;3.30;;
5553;SDS011;2800;49.528;8.666;2022-09-13T17:37:30;7.93;;;3.20;;
5553;SDS011;2800;49.528;8.666;2022-09-13T17:39:55;7.90;;;3.63;;
5553;SDS011;2800;49.528;8.666;2022-09-13T17:42:21;5.70;;;3.20;;
5553;SDS011;2800;49.528;8.666;2022-09-13T17:44:46;7.97;;;3.67;;
5553;SDS011;2800;49.528;8.666;2022-09-13T17:47:12;14.53;;;3.60;;
5553;SDS011;2800;49.528;8.666;2022-09-13T17:49:37;7.13;;;3.70;;
5553;SDS011;2800;49.528;8.666;2022-09-13T17:52:03;6.63;;;3.20;;
5553;SDS011;2800;49.528;8.666;2022-09-13T17:54:29;4.90;;;2.70;;
5553;SDS011;2800;49.528;8.666;2022-09-13T17:56:54;6.70;;;3.40;;
5553;SDS011;2800;49.528;8.666;2022-09-13T17:59:20;7.13;;;3.50;;
5553;SDS011;2800;49.528;8.666;2022-09-13T18:01:47;7.57;;;3.00;;
5553;SDS011;2800;49.528;8.666;2022-09-13T18:04:15;5.90;;;3.23;;
5553;SDS011;2800;49.528;8.666;2022-09-13T18:06:42;8.87;;;4.80;;
5553;SDS011;2800;49.528;8.666;2022-09-13T18:09:09;7.30;;;2.73;;
5553;SDS011;2800;49.528;8.666;2022-09-13T18:11:35;4.10;;;2.30;;
5553;SDS011;2800;49.528;8.666;2022-09-13T18:14:01;10.10;;;2.63;;
5553;SDS011;2800;49.528;8.666;2022-09-13T18:16:27;5.50;;;2.67;;
5553;SDS011;2800;49.528;8.666;2022-09-13T18:18:53;5.10;;;2.93;;